Time;durP1;ratioP1;P1;durP2;ratioP2;P2;SDS_P1;SDS_P2;PMS_P1;PMS_P2;Temp;Humidity;BMP_temperature;BMP_pressure;BME280_temperature;BME280_humidity;BME280_pressure;Samples;Min_cycle;Max_cycle;Signal;HPM_P1;HPM_P2
2023/10/04 00:01:36;;;;;;;4.30;1.35;;;;;;;;;;4979319;28;20062;-70
2023/10/04 00:04:03;;;;;;;0.93;0.80;;;;;;;;;;4980916;28;20078;-70
2023/10/04 00:06:31;;;;;;;5.60;1.00;;;;;;;;;;4981321;28;20069;-69
2023/10/04 00:08:56;;;;;;;1.42;1.00;;;;;;;;;;4980873;28;20216;-69
2023/10/04 00:11:22;;;;;;;4.13;1.20;;;;;;;;;;4980404;28;20401;-68
2023/10/04 00:13:47;;;;;;;5.20;1.05;;;;;;;;;;4981354;28;20146;-71
2023/10/04 00:16:13;;;;;;;2.55;1.02;;;;;;;;;;4980281;28;20423;-72
2023/10/04 00:18:38;;;;;;;2.05;0.88;;;;;;;;;;4981383;28;20082;-71
2023/10/04 00:21:06;;;;;;;1.42;0.77;;;;;;;;;;4980114;28;20107;-72
2023/10/04 00:23:32;;;;;;;2.22;1.08;;;;;;;;;;4980296;28;20042;-71
2023/10/04 00:25:57;;;;;;;2.20;0.90;;;;;;;;;;4981029;28;20057;-71
2023/10/04 00:28:22;;;;;;;2.47;1.17;;;;;;;;;;4980741;28;20081;-69
2023/10/04 00:30:48;;;;;;;1.23;1.00;;;;;;;;;;4978936;28;20061;-71
2023/10/04 00:33:15;;;;;;;1.33;1.10;;;;;;;;;;4995837;28;20043;-68
2023/10/04 00:35:40;;;;;;;3.25;1.02;;;;;;;;;;4963193;28;20081;-70
2023/10/04 00:38:08;;;;;;;2.85;1.13;;;;;;;;;;4980490;28;20078;-71
2023/10/04 00:40:33;;;;;;;2.05;1.00;;;;;;;;;;4979119;28;20039;-69
2023/10/04 00:43:01;;;;;;;4.80;1.20;;;;;;;;;;4980009;28;20100;-68
2023/10/04 00:45:34;;;;;;;2.38;1.10;;;;;;;;;;4978639;28;20038;-71
2023/10/04 00:48:04;;;;;;;2.38;0.90;;;;;;;;;;4980014;28;20053;-70
2023/10/04 00:50:31;;;;;;;1.88;1.15;;;;;;;;;;4979345;28;20161;-70
2023/10/04 00:53:08;;;;;;;2.03;0.98;;;;;;;;;;4978291;28;20039;-69
2023/10/04 00:55:34;;;;;;;2.47;1.10;;;;;;;;;;4979596;28;20479;-71
2023/10/04 00:58:05;;;;;;;1.83;1.10;;;;;;;;;;4977670;28;20046;-69
2023/10/04 01:00:31;;;;;;;6.68;1.23;;;;;;;;;;4979157;28;20046;-69
2023/10/04 01:02:57;;;;;;;1.65;1.05;;;;;;;;;;4980084;28;20562;-71
2023/10/04 01:05:25;;;;;;;1.20;1.00;;;;;;;;;;4993782;28;20046;-70
2023/10/04 01:07:52;;;;;;;2.10;0.80;;;;;;;;;;4978746;28;20046;-70
2023/10/04 01:10:20;;;;;;;6.47;1.30;;;;;;;;;;4978374;28;20078;-69
2023/10/04 01:12:46;;;;;;;2.00;1.20;;;;;;;;;;4978844;28;20054;-69
2023/10/04 01:15:31;;;;;;;3.38;0.95;;;;;;;;;;4977797;28;20050;-69
2023/10/04 01:18:01;;;;;;;1.40;0.90;;;;;;;;;;4943210;28;20128;-69
2023/10/04 01:20:28;;;;;;;2.70;1.05;;;;;;;;;;4952910;28;20511;-71
2023/10/04 01:23:01;;;;;;;2.10;1.00;;;;;;;;;;4979425;28;20462;-70
2023/10/04 01:25:34;;;;;;;2.30;1.05;;;;;;;;;;4977173;28;20066;-72
2023/10/04 01:28:01;;;;;;;2.83;1.35;;;;;;;;;;4977347;28;20096;-69
2023/10/04 01:30:28;;;;;;;2.10;1.35;;;;;;;;;;4976761;28;20491;-67
2023/10/04 01:32:54;;;;;;;1.38;1.00;;;;;;;;;;4978963;28;20046;-69
2023/10/04 01:35:23;;;;;;;2.05;0.90;;;;;;;;;;4975676;28;21126;-69
2023/10/04 01:37:50;;;;;;;1.58;1.38;;;;;;;;;;4977170;28;20046;-67
2023/10/04 01:40:18;;;;;;;1.95;1.00;;;;;;;;;;4979479;28;20050;-69
2023/10/04 01:42:45;;;;;;;1.90;0.90;;;;;;;;;;4979856;28;20480;-71
2023/10/04 01:45:18;;;;;;;2.00;1.25;;;;;;;;;;4977949;28;20053;-70
2023/10/04 01:47:44;;;;;;;0.98;0.88;;;;;;;;;;4963380;28;21075;-68
2023/10/04 01:50:10;;;;;;;1.58;1.20;;;;;;;;;;4994279;28;20573;-69
2023/10/04 01:52:38;;;;;;;1.55;0.90;;;;;;;;;;4994070;28;20121;-71
2023/10/04 01:55:10;;;;;;;2.17;0.75;;;;;;;;;;4979472;28;20151;-70
2023/10/04 01:57:38;;;;;;;2.25;1.10;;;;;;;;;;4977093;28;20054;-70
2023/10/04 02:00:04;;;;;;;3.00;1.30;;;;;;;;;;4977603;28;20226;-71
2023/10/04 02:02:39;;;;;;;1.27;1.02;;;;;;;;;;4979490;28;20446;-71
2023/10/04 02:05:10;;;;;;;3.17;1.20;;;;;;;;;;4979514;28;20054;-71
2023/10/04 02:07:38;;;;;;;1.65;1.08;;;;;;;;;;4977146;28;20054;-70
2023/10/04 02:10:09;;;;;;;2.25;1.10;;;;;;;;;;4988553;28;20051;-72
2023/10/04 02:12:35;;;;;;;6.88;1.23;;;;;;;;;;4962172;28;20125;-69
2023/10/04 02:15:01;;;;;;;1.38;1.05;;;;;;;;;;4978119;28;20054;-72
2023/10/04 02:17:26;;;;;;;3.75;1.58;;;;;;;;;;4976681;28;20097;-72
2023/10/04 02:19:53;;;;;;;2.15;1.02;;;;;;;;;;4977900;28;20050;-72
2023/10/04 02:22:20;;;;;;;2.45;1.20;;;;;;;;;;4978282;28;20050;-72
2023/10/04 02:24:47;;;;;;;1.33;0.93;;;;;;;;;;4977680;28;20630;-72
2023/10/04 02:27:12;;;;;;;5.68;1.40;;;;;;;;;;4976844;28;21162;-70
2023/10/04 02:29:38;;;;;;;3.10;1.48;;;;;;;;;;4976522;28;20046;-72
2023/10/04 02:32:10;;;;;;;3.42;1.33;;;;;;;;;;4993170;28;20138;-70
2023/10/04 02:34:38;;;;;;;2.05;1.30;;;;;;;;;;4978287;28;20046;-70
2023/10/04 02:37:07;;;;;;;1.58;1.05;;;;;;;;;;4977592;28;20050;-69
2023/10/04 02:39:34;;;;;;;1.63;1.20;;;;;;;;;;4976852;28;20184;-71
2023/10/04 02:41:59;;;;;;;1.23;1.10;;;;;;;;;;4993742;28;20042;-71
2023/10/04 02:44:25;;;;;;;2.78;1.40;;;;;;;;;;4990146;28;20058;-71
2023/10/04 02:46:51;;;;;;;2.65;1.20;;;;;;;;;;4977126;28;20054;-71
2023/10/04 02:49:16;;;;;;;2.40;1.30;;;;;;;;;;4993338;28;20384;-70
2023/10/04 02:51:44;;;;;;;2.22;1.42;;;;;;;;;;4977804;28;20141;-71
2023/10/04 02:54:11;;;;;;;2.63;1.20;;;;;;;;;;4976755;28;20049;-70
2023/10/04 02:56:42;;;;;;;1.88;1.30;;;;;;;;;;4993484;28;20046;-68
2023/10/04 02:59:07;;;;;;;2.35;1.25;;;;;;;;;;4985776;28;20082;-70
2023/10/04 03:01:33;;;;;;;3.65;1.40;;;;;;;;;;4978035;28;20134;-70
2023/10/04 03:03:58;;;;;;;1.92;1.23;;;;;;;;;;4993547;28;20050;-68
2023/10/04 03:06:28;;;;;;;2.00;1.13;;;;;;;;;;4991645;28;20131;-71
2023/10/04 03:08:56;;;;;;;2.92;1.73;;;;;;;;;;4993702;28;20042;-70
2023/10/04 03:11:23;;;;;;;1.77;1.48;;;;;;;;;;4992484;28;20058;-71
2023/10/04 03:13:49;;;;;;;1.75;1.30;;;;;;;;;;4977796;28;20061;-70
2023/10/04 03:16:14;;;;;;;3.13;1.85;;;;;;;;;;4972940;28;20062;-68
2023/10/04 03:18:44;;;;;;;1.30;1.13;;;;;;;;;;4992907;28;20046;-71
2023/10/04 03:21:20;;;;;;;3.40;1.48;;;;;;;;;;4978802;28;20066;-69
2023/10/04 03:23:46;;;;;;;2.38;1.30;;;;;;;;;;4963535;28;20046;-69
2023/10/04 03:26:18;;;;;;;4.15;1.77;;;;;;;;;;4995811;28;20096;-71
2023/10/04 03:28:49;;;;;;;1.92;1.50;;;;;;;;;;4981163;28;20121;-70
2023/10/04 03:31:14;;;;;;;2.08;1.27;;;;;;;;;;4995934;28;20041;-70
2023/10/04 03:33:46;;;;;;;5.65;1.27;;;;;;;;;;4978989;28;20574;-71
2023/10/04 03:36:18;;;;;;;3.42;1.60;;;;;;;;;;4979810;28;20165;-70
2023/10/04 03:38:49;;;;;;;2.42;1.33;;;;;;;;;;4977446;28;20793;-70
2023/10/04 03:41:16;;;;;;;4.50;1.35;;;;;;;;;;4977928;28;20042;-71
2023/10/04 03:43:42;;;;;;;2.45;1.33;;;;;;;;;;4980109;28;20100;-69
2023/10/04 03:46:18;;;;;;;2.30;1.58;;;;;;;;;;4978950;28;20566;-69
2023/10/04 03:48:47;;;;;;;2.42;1.50;;;;;;;;;;4962958;28;20128;-69
2023/10/04 03:51:15;;;;;;;2.20;1.77;;;;;;;;;;4978832;28;20061;-70
2023/10/04 03:53:43;;;;;;;2.53;1.40;;;;;;;;;;4978538;28;20050;-67
2023/10/04 03:56:12;;;;;;;3.78;1.70;;;;;;;;;;4978652;28;20053;-72
2023/10/04 03:58:38;;;;;;;3.53;1.70;;;;;;;;;;4980859;28;20081;-71
2023/10/04 04:01:05;;;;;;;2.08;1.45;;;;;;;;;;4977591;28;20078;-71
2023/10/04 04:03:30;;;;;;;4.05;1.58;;;;;;;;;;4979415;28;20542;-71
2023/10/04 04:05:56;;;;;;;2.50;1.67;;;;;;;;;;4977897;28;20072;-72
2023/10/04 04:08:21;;;;;;;4.03;1.67;;;;;;;;;;4977851;28;20126;-72
2023/10/04 04:10:47;;;;;;;1.75;1.40;;;;;;;;;;4978550;28;20104;-72
2023/10/04 04:13:13;;;;;;;2.10;1.58;;;;;;;;;;4994880;28;20058;-72
2023/10/04 04:15:39;;;;;;;1.85;1.50;;;;;;;;;;4975436;28;20050;-71
2023/10/04 04:18:06;;;;;;;2.38;1.77;;;;;;;;;;4973302;28;20065;-72
2023/10/04 04:20:35;;;;;;;6.38;1.55;;;;;;;;;;4994544;28;20403;-71
2023/10/04 04:23:05;;;;;;;5.25;1.50;;;;;;;;;;4978132;28;20061;-70
2023/10/04 04:25:32;;;;;;;3.42;1.13;;;;;;;;;;4993443;28;20070;-72
2023/10/04 04:27:58;;;;;;;2.90;1.63;;;;;;;;;;4978760;28;20130;-71
2023/10/04 04:30:31;;;;;;;3.65;2.03;;;;;;;;;;4994071;28;20042;-71
2023/10/04 04:32:57;;;;;;;3.03;1.90;;;;;;;;;;4977080;28;20038;-69
2023/10/04 04:35:47;;;;;;;4.47;1.88;;;;;;;;;;4978446;28;20080;-70
2023/10/04 04:38:25;;;;;;;1.70;1.40;;;;;;;;;;4978258;28;20494;-71
2023/10/04 04:40:56;;;;;;;4.70;1.70;;;;;;;;;;4995151;28;20511;-71
2023/10/04 04:43:30;;;;;;;5.05;1.65;;;;;;;;;;4946539;28;20122;-70
2023/10/04 04:45:58;;;;;;;5.22;1.50;;;;;;;;;;4978259;28;20043;-70
2023/10/04 04:48:30;;;;;;;3.42;1.73;;;;;;;;;;4977737;28;20089;-70
2023/10/04 04:51:03;;;;;;;2.10;1.35;;;;;;;;;;4995240;28;20064;-71
2023/10/04 04:53:29;;;;;;;2.50;1.60;;;;;;;;;;4994182;28;20034;-70
2023/10/04 04:55:56;;;;;;;3.42;1.75;;;;;;;;;;4978031;28;20150;-70
2023/10/04 04:58:22;;;;;;;2.50;1.55;;;;;;;;;;4977728;28;20057;-70
2023/10/04 05:00:50;;;;;;;5.68;2.08;;;;;;;;;;4977014;28;20057;-70
2023/10/04 05:03:17;;;;;;;3.58;2.00;;;;;;;;;;4960999;28;20043;-70
2023/10/04 05:05:42;;;;;;;2.25;1.63;;;;;;;;;;4962078;28;20515;-70
2023/10/04 05:08:08;;;;;;;2.15;1.45;;;;;;;;;;4979365;28;20038;-70
2023/10/04 05:10:38;;;;;;;3.20;1.90;;;;;;;;;;4976598;28;20050;-71
2023/10/04 05:13:07;;;;;;;3.58;1.70;;;;;;;;;;4978277;28;20519;-69
2023/10/04 05:15:34;;;;;;;3.88;1.60;;;;;;;;;;4977271;28;20096;-71
2023/10/04 05:18:02;;;;;;;2.15;1.60;;;;;;;;;;4973730;28;20052;-70
2023/10/04 05:20:30;;;;;;;3.47;1.65;;;;;;;;;;4977846;28;21104;-72
2023/10/04 05:22:56;;;;;;;3.50;1.52;;;;;;;;;;4979866;28;20971;-72
2023/10/04 05:25:22;;;;;;;2.88;1.60;;;;;;;;;;4978850;28;20054;-72
2023/10/04 05:27:50;;;;;;;2.45;1.70;;;;;;;;;;4977605;28;20050;-71
2023/10/04 05:30:18;;;;;;;1.42;1.30;;;;;;;;;;4978948;28;20157;-71
2023/10/04 05:32:45;;;;;;;2.50;1.33;;;;;;;;;;4980191;28;20515;-71
2023/10/04 05:35:12;;;;;;;18.17;2.65;;;;;;;;;;4982785;28;20492;-70
2023/10/04 05:37:40;;;;;;;3.88;1.88;;;;;;;;;;4978546;28;20069;-73
2023/10/04 05:40:12;;;;;;;3.65;1.52;;;;;;;;;;4977616;28;20793;-71
2023/10/04 05:42:38;;;;;;;3.15;1.70;;;;;;;;;;4979394;28;20089;-71
2023/10/04 05:45:06;;;;;;;3.00;1.77;;;;;;;;;;4979587;28;20054;-70
2023/10/04 05:47:32;;;;;;;4.30;1.63;;;;;;;;;;4993122;28;20137;-72
2023/10/04 05:49:58;;;;;;;2.72;1.70;;;;;;;;;;4978926;28;20141;-69
2023/10/04 05:52:23;;;;;;;3.50;1.58;;;;;;;;;;4994493;28;20054;-69
2023/10/04 05:54:49;;;;;;;2.28;1.75;;;;;;;;;;4979540;28;20201;-68
2023/10/04 05:57:14;;;;;;;6.22;1.75;;;;;;;;;;4979180;28;20042;-69
2023/10/04 05:59:39;;;;;;;3.03;1.88;;;;;;;;;;4978793;28;20952;-68
2023/10/04 06:02:05;;;;;;;3.38;1.77;;;;;;;;;;4978958;28;20071;-70
2023/10/04 06:04:30;;;;;;;6.35;1.90;;;;;;;;;;4979227;28;20788;-70
2023/10/04 06:06:56;;;;;;;3.47;1.65;;;;;;;;;;4979361;28;20038;-69
2023/10/04 06:09:29;;;;;;;10.50;2.13;;;;;;;;;;4978992;28;20046;-70
2023/10/04 06:11:56;;;;;;;6.07;1.60;;;;;;;;;;4978785;28;20057;-69
2023/10/04 06:14:22;;;;;;;1.92;1.50;;;;;;;;;;4979299;28;20038;-70
2023/10/04 06:16:47;;;;;;;5.20;1.70;;;;;;;;;;4978928;28;20045;-69
2023/10/04 06:19:13;;;;;;;1.40;1.30;;;;;;;;;;4978135;28;20085;-69
2023/10/04 06:21:40;;;;;;;4.57;1.75;;;;;;;;;;4978302;28;20060;-69
2023/10/04 06:24:06;;;;;;;6.18;1.40;;;;;;;;;;4978814;28;20200;-70
2023/10/04 06:26:32;;;;;;;1.73;1.50;;;;;;;;;;4978821;28;20050;-69
2023/10/04 06:28:57;;;;;;;3.33;1.48;;;;;;;;;;4979702;28;20038;-69
2023/10/04 06:31:23;;;;;;;2.47;1.27;;;;;;;;;;4977117;28;20881;-70
2023/10/04 06:33:53;;;;;;;2.65;1.40;;;;;;;;;;4978813;28;20065;-70
2023/10/04 06:36:19;;;;;;;5.05;1.52;;;;;;;;;;4979068;28;20500;-68
2023/10/04 06:38:44;;;;;;;1.75;1.30;;;;;;;;;;4978806;28;20133;-70
2023/10/04 06:41:09;;;;;;;2.15;1.27;;;;;;;;;;4979290;28;20089;-68
2023/10/04 06:43:35;;;;;;;1.45;1.35;;;;;;;;;;4978359;28;20574;-71
2023/10/04 06:46:00;;;;;;;2.38;1.35;;;;;;;;;;4978320;28;20164;-70
2023/10/04 06:48:26;;;;;;;6.60;1.60;;;;;;;;;;4979028;28;20050;-68
2023/10/04 06:50:51;;;;;;;4.55;1.75;;;;;;;;;;4979002;28;20427;-71
2023/10/04 06:53:17;;;;;;;3.25;1.40;;;;;;;;;;4978395;28;20035;-69
2023/10/04 06:55:42;;;;;;;1.52;1.15;;;;;;;;;;4980792;28;20479;-71
2023/10/04 06:58:10;;;;;;;2.28;1.30;;;;;;;;;;4982349;28;20038;-71
2023/10/04 07:00:38;;;;;;;1.67;1.08;;;;;;;;;;4982496;28;20547;-69
2023/10/04 07:03:04;;;;;;;3.38;1.45;;;;;;;;;;4982813;28;20136;-69
2023/10/04 07:05:37;;;;;;;1.98;1.30;;;;;;;;;;4981802;28;20137;-70
2023/10/04 07:08:05;;;;;;;5.93;1.30;;;;;;;;;;4982059;28;20043;-69
2023/10/04 07:10:31;;;;;;;3.72;1.40;;;;;;;;;;4982478;28;20557;-71
2023/10/04 07:12:58;;;;;;;2.92;1.50;;;;;;;;;;4982892;28;20496;-70
2023/10/04 07:15:27;;;;;;;3.80;1.30;;;;;;;;;;4982276;28;20046;-70
2023/10/04 07:17:53;;;;;;;2.85;1.45;;;;;;;;;;4981495;28;20763;-70
2023/10/04 07:20:19;;;;;;;3.72;1.50;;;;;;;;;;4982561;28;20048;-71
2023/10/04 07:22:46;;;;;;;2.13;1.42;;;;;;;;;;4982457;28;20038;-69
2023/10/04 07:25:15;;;;;;;1.73;1.10;;;;;;;;;;4982173;28;20617;-71
2023/10/04 07:27:45;;;;;;;1.65;1.10;;;;;;;;;;4981197;28;20478;-70
2023/10/04 07:30:14;;;;;;;2.65;1.40;;;;;;;;;;4981160;28;20147;-69
2023/10/04 07:32:43;;;;;;;3.95;1.38;;;;;;;;;;4982164;28;20042;-69
2023/10/04 07:35:15;;;;;;;1.48;1.05;;;;;;;;;;4982688;28;20042;-70
2023/10/04 07:37:41;;;;;;;5.25;1.33;;;;;;;;;;4981107;28;20062;-71
2023/10/04 07:40:09;;;;;;;2.35;1.30;;;;;;;;;;4981740;28;20062;-70
2023/10/04 07:42:38;;;;;;;2.15;1.08;;;;;;;;;;4981008;28;20046;-71
2023/10/04 07:45:05;;;;;;;1.92;1.33;;;;;;;;;;4982461;28;20050;-71
2023/10/04 07:47:32;;;;;;;1.60;1.50;;;;;;;;;;4981030;28;20235;-71
2023/10/04 07:49:58;;;;;;;1.85;1.55;;;;;;;;;;4982020;28;21135;-72
2023/10/04 07:52:23;;;;;;;3.33;1.30;;;;;;;;;;4981599;28;20169;-72
2023/10/04 07:54:50;;;;;;;2.67;1.40;;;;;;;;;;4996129;28;20054;-72
2023/10/04 07:57:15;;;;;;;2.45;1.42;;;;;;;;;;4981431;28;20038;-72
2023/10/04 07:59:43;;;;;;;2.83;1.67;;;;;;;;;;4981121;28;20463;-72
2023/10/04 08:02:09;;;;;;;9.70;2.58;;;;;;;;;;4980958;28;20077;-71
2023/10/04 08:04:34;;;;;;;2.38;1.33;;;;;;;;;;4981839;28;20672;-71
2023/10/04 08:07:00;;;;;;;2.28;1.63;;;;;;;;;;4979154;28;20046;-71
2023/10/04 08:09:25;;;;;;;1.65;1.30;;;;;;;;;;4980622;28;20046;-72
2023/10/04 08:11:52;;;;;;;3.90;1.50;;;;;;;;;;4981485;28;20158;-71
2023/10/04 08:14:20;;;;;;;1.52;1.10;;;;;;;;;;4980005;28;20077;-72
2023/10/04 08:16:49;;;;;;;1.70;1.23;;;;;;;;;;4981316;28;20050;-72
2023/10/04 08:19:14;;;;;;;2.92;1.10;;;;;;;;;;4980986;28;20069;-72
2023/10/04 08:21:41;;;;;;;2.13;1.00;;;;;;;;;;4980727;28;20090;-71
2023/10/04 08:24:07;;;;;;;2.65;1.30;;;;;;;;;;4981039;28;20104;-72
2023/10/04 08:26:33;;;;;;;2.85;1.58;;;;;;;;;;4980821;28;20042;-71
2023/10/04 08:28:59;;;;;;;1.85;1.27;;;;;;;;;;4981316;28;20462;-72
2023/10/04 08:31:24;;;;;;;1.70;1.20;;;;;;;;;;4979094;28;20046;-72
2023/10/04 08:33:50;;;;;;;1.98;1.52;;;;;;;;;;4981514;28;20478;-71
2023/10/04 08:36:17;;;;;;;1.83;1.20;;;;;;;;;;4980148;28;20141;-71
2023/10/04 08:38:45;;;;;;;2.78;1.45;;;;;;;;;;4981227;28;20217;-70
2023/10/04 08:41:11;;;;;;;1.80;1.20;;;;;;;;;;4981708;28;20034;-69
2023/10/04 08:43:37;;;;;;;1.80;1.17;;;;;;;;;;4981036;28;20178;-70
2023/10/04 08:46:04;;;;;;;2.28;1.10;;;;;;;;;;4980932;28;20071;-70
2023/10/04 08:48:30;;;;;;;4.00;1.27;;;;;;;;;;4981595;28;20046;-70
2023/10/04 08:51:11;;;;;;;2.05;1.15;;;;;;;;;;4979763;28;20046;-71
2023/10/04 08:54:04;;;;;;;1.75;1.23;;;;;;;;;;4980238;28;20054;-70
2023/10/04 08:56:37;;;;;;;1.52;1.20;;;;;;;;;;4980259;28;20058;-70
2023/10/04 08:59:03;;;;;;;2.00;1.27;;;;;;;;;;4990990;28;20076;-70
2023/10/04 09:01:30;;;;;;;3.03;1.30;;;;;;;;;;4980907;28;20057;-71
2023/10/04 09:03:57;;;;;;;3.15;1.90;;;;;;;;;;4996525;28;20529;-69
2023/10/04 09:06:22;;;;;;;1.70;1.15;;;;;;;;;;4981266;28;20070;-69
2023/10/04 09:08:49;;;;;;;2.13;1.20;;;;;;;;;;4980965;28;20104;-71
2023/10/04 09:11:15;;;;;;;2.85;1.08;;;;;;;;;;4981525;28;20038;-70
2023/10/04 09:13:52;;;;;;;2.50;1.20;;;;;;;;;;4981403;28;20141;-70
2023/10/04 09:16:28;;;;;;;1.05;0.93;;;;;;;;;;4981785;28;20054;-71
2023/10/04 09:19:14;;;;;;;1.95;1.40;;;;;;;;;;4979281;28;20058;-71
2023/10/04 09:21:41;;;;;;;2.67;1.20;;;;;;;;;;4980521;28;20054;-72
2023/10/04 09:24:10;;;;;;;2.63;1.27;;;;;;;;;;4980533;28;20137;-71
2023/10/04 09:26:48;;;;;;;1.38;1.00;;;;;;;;;;4978824;28;20055;-71
2023/10/04 09:29:15;;;;;;;2.58;1.17;;;;;;;;;;4979814;28;20384;-71
2023/10/04 09:31:55;;;;;;;1.38;1.05;;;;;;;;;;4979388;28;20058;-72
2023/10/04 09:34:22;;;;;;;2.03;1.15;;;;;;;;;;4979697;28;20085;-72
2023/10/04 09:36:49;;;;;;;3.78;1.38;;;;;;;;;;4978130;28;20430;-72
2023/10/04 09:39:16;;;;;;;1.58;1.20;;;;;;;;;;4978942;28;20522;-72
2023/10/04 09:41:43;;;;;;;4.63;1.42;;;;;;;;;;4978538;28;20096;-72
2023/10/04 09:44:25;;;;;;;2.42;1.50;;;;;;;;;;4979902;28;20190;-72
2023/10/04 09:47:02;;;;;;;2.78;1.45;;;;;;;;;;4979139;28;20042;-70
2023/10/04 09:49:31;;;;;;;1.98;1.20;;;;;;;;;;4979336;28;20047;-71
2023/10/04 09:52:03;;;;;;;2.28;0.90;;;;;;;;;;4979035;28;20551;-70
2023/10/04 09:54:30;;;;;;;2.45;1.25;;;;;;;;;;4979838;28;20050;-70
2023/10/04 09:56:56;;;;;;;2.00;1.38;;;;;;;;;;4977641;28;20058;-70
2023/10/04 09:59:23;;;;;;;5.63;1.23;;;;;;;;;;4978937;28;20041;-70
2023/10/04 10:01:56;;;;;;;2.15;1.10;;;;;;;;;;4979127;28;20089;-71
2023/10/04 10:04:27;;;;;;;3.35;1.10;;;;;;;;;;4978781;28;20049;-70
2023/10/04 10:07:06;;;;;;;1.42;1.13;;;;;;;;;;4979123;28;20480;-70
2023/10/04 10:09:34;;;;;;;2.05;1.08;;;;;;;;;;4979358;28;20045;-71
2023/10/04 10:12:01;;;;;;;3.55;1.80;;;;;;;;;;4978216;28;20064;-73
2023/10/04 10:14:27;;;;;;;1.70;1.20;;;;;;;;;;4978965;28;20137;-70
2023/10/04 10:16:55;;;;;;;1.10;1.00;;;;;;;;;;4979220;28;20454;-71
2023/10/04 10:19:23;;;;;;;2.20;1.10;;;;;;;;;;4979564;28;20038;-71
2023/10/04 10:22:11;;;;;;;4.60;1.35;;;;;;;;;;4979634;28;20065;-70
2023/10/04 10:24:55;;;;;;;1.83;1.23;;;;;;;;;;4979420;28;20050;-71
2023/10/04 10:27:22;;;;;;;4.07;1.10;;;;;;;;;;4978920;28;20054;-71
2023/10/04 10:29:48;;;;;;;4.30;1.23;;;;;;;;;;4980480;28;20144;-70
2023/10/04 10:32:20;;;;;;;2.08;1.05;;;;;;;;;;4983692;28;20133;-72
2023/10/04 10:34:49;;;;;;;2.33;1.30;;;;;;;;;;4984179;28;20503;-71
2023/10/04 10:37:18;;;;;;;3.17;1.27;;;;;;;;;;4983195;28;20518;-71
2023/10/04 10:39:49;;;;;;;1.98;1.30;;;;;;;;;;4983276;28;20046;-71
2023/10/04 10:42:15;;;;;;;3.17;1.40;;;;;;;;;;4983862;28;20046;-69
2023/10/04 10:44:41;;;;;;;3.80;1.63;;;;;;;;;;4983295;28;20510;-71
2023/10/04 10:47:16;;;;;;;2.80;1.10;;;;;;;;;;4982253;28;21561;-71
2023/10/04 10:49:48;;;;;;;2.72;1.23;;;;;;;;;;4982927;28;20077;-70
2023/10/04 10:52:31;;;;;;;3.30;1.55;;;;;;;;;;4982750;28;20435;-75
2023/10/04 10:54:58;;;;;;;4.10;1.55;;;;;;;;;;4982711;28;20505;-76
2023/10/04 10:57:27;;;;;;;2.90;1.30;;;;;;;;;;4981196;28;20282;-75
2023/10/04 10:59:54;;;;;;;1.45;1.33;;;;;;;;;;4980954;28;20149;-76
2023/10/04 11:02:21;;;;;;;1.35;1.23;;;;;;;;;;4982280;28;20034;-76
2023/10/04 11:04:48;;;;;;;2.08;1.10;;;;;;;;;;4981470;28;20042;-73
2023/10/04 11:07:17;;;;;;;1.95;0.90;;;;;;;;;;4982199;28;20050;-74
2023/10/04 11:09:48;;;;;;;2.20;1.30;;;;;;;;;;4980564;28;20147;-72
2023/10/04 11:12:13;;;;;;;5.03;1.13;;;;;;;;;;4982319;28;20820;-72
2023/10/04 11:14:40;;;;;;;1.33;0.95;;;;;;;;;;4982627;28;20124;-72
2023/10/04 11:17:05;;;;;;;1.55;1.05;;;;;;;;;;4980855;28;20061;-76
2023/10/04 11:19:34;;;;;;;2.08;0.85;;;;;;;;;;4981295;28;20054;-75
2023/10/04 11:22:01;;;;;;;4.78;1.27;;;;;;;;;;4980653;28;20432;-74
2023/10/04 11:24:27;;;;;;;3.25;1.33;;;;;;;;;;4982550;28;20050;-74
2023/10/04 11:26:58;;;;;;;4.30;1.25;;;;;;;;;;4980253;28;20092;-75
2023/10/04 11:29:26;;;;;;;2.20;1.20;;;;;;;;;;4981151;28;20050;-75
2023/10/04 11:31:52;;;;;;;2.33;1.20;;;;;;;;;;4981924;28;20073;-70
2023/10/04 11:34:18;;;;;;;1.25;0.95;;;;;;;;;;4981691;28;20062;-70
2023/10/04 11:36:44;;;;;;;2.03;1.15;;;;;;;;;;4975400;28;20074;-70
2023/10/04 11:39:18;;;;;;;1.95;1.13;;;;;;;;;;4979455;28;20034;-72
2023/10/04 11:41:50;;;;;;;2.53;1.10;;;;;;;;;;4976060;28;20557;-71
2023/10/04 11:44:18;;;;;;;1.20;1.00;;;;;;;;;;4994059;28;20581;-71
2023/10/04 11:47:08;;;;;;;1.88;1.30;;;;;;;;;;4979623;28;20186;-71
2023/10/04 11:49:34;;;;;;;1.63;1.30;;;;;;;;;;4964594;28;20519;-71
2023/10/04 11:52:07;;;;;;;1.38;1.27;;;;;;;;;;4994157;28;20053;-70
2023/10/04 11:54:40;;;;;;;3.92;1.10;;;;;;;;;;4979928;28;20073;-70
2023/10/04 11:57:07;;;;;;;3.58;1.30;;;;;;;;;;4979098;28;20061;-71
2023/10/04 11:59:33;;;;;;;1.52;1.17;;;;;;;;;;4979504;28;20538;-70
2023/10/04 12:02:00;;;;;;;4.28;1.13;;;;;;;;;;4977630;28;20042;-70
2023/10/04 12:04:27;;;;;;;2.25;1.42;;;;;;;;;;4979603;28;20133;-71
2023/10/04 12:07:04;;;;;;;3.58;1.50;;;;;;;;;;4979538;28;20457;-71
2023/10/04 12:09:34;;;;;;;3.67;1.30;;;;;;;;;;4979628;28;20057;-69
2023/10/04 12:12:03;;;;;;;3.28;1.40;;;;;;;;;;4977856;28;20162;-69
2023/10/04 12:14:31;;;;;;;3.65;1.40;;;;;;;;;;4980446;28;20561;-70
2023/10/04 12:16:57;;;;;;;2.55;1.48;;;;;;;;;;4977989;28;20046;-69
2023/10/04 12:19:23;;;;;;;3.13;1.00;;;;;;;;;;4978881;28;20499;-69
2023/10/04 12:21:49;;;;;;;1.88;1.00;;;;;;;;;;4978016;28;20088;-71
2023/10/04 12:24:15;;;;;;;2.33;1.38;;;;;;;;;;4979378;28;20166;-71
2023/10/04 12:26:40;;;;;;;1.30;1.00;;;;;;;;;;4976908;28;20073;-71
2023/10/04 12:29:07;;;;;;;1.60;1.20;;;;;;;;;;4979991;28;20176;-71
2023/10/04 12:31:34;;;;;;;1.80;1.10;;;;;;;;;;4978474;28;20046;-71
2023/10/04 12:34:00;;;;;;;5.85;1.45;;;;;;;;;;4981070;28;20137;-71
2023/10/04 12:36:25;;;;;;;3.78;1.30;;;;;;;;;;4978524;28;20046;-71
2023/10/04 12:38:51;;;;;;;5.10;1.40;;;;;;;;;;4980169;28;20487;-69
2023/10/04 12:41:18;;;;;;;3.47;1.50;;;;;;;;;;4979641;28;20038;-70
2023/10/04 12:43:43;;;;;;;3.75;1.40;;;;;;;;;;4980838;28;20365;-70
2023/10/04 12:46:09;;;;;;;2.53;1.30;;;;;;;;;;4979215;28;20642;-71
2023/10/04 12:48:34;;;;;;;4.80;1.30;;;;;;;;;;4980562;28;20050;-70
2023/10/04 12:50:59;;;;;;;2.58;1.35;;;;;;;;;;4981279;28;20046;-71
2023/10/04 12:53:25;;;;;;;1.90;1.17;;;;;;;;;;4980146;28;20035;-70
2023/10/04 12:55:51;;;;;;;2.47;1.15;;;;;;;;;;4981098;28;20991;-71
2023/10/04 12:58:20;;;;;;;2.13;1.25;;;;;;;;;;4979598;28;20077;-71
2023/10/04 13:00:46;;;;;;;1.73;1.20;;;;;;;;;;4981457;28;20598;-71
2023/10/04 13:03:12;;;;;;;2.33;1.35;;;;;;;;;;4979355;28;20085;-72
2023/10/04 13:05:37;;;;;;;3.10;1.38;;;;;;;;;;4979573;28;20042;-71
2023/10/04 13:08:08;;;;;;;5.35;1.20;;;;;;;;;;4979831;28;20439;-70
2023/10/04 13:10:36;;;;;;;5.13;1.30;;;;;;;;;;4979957;28;20062;-71
2023/10/04 13:13:03;;;;;;;2.60;1.35;;;;;;;;;;4979539;28;20587;-71
2023/10/04 13:15:29;;;;;;;2.20;1.40;;;;;;;;;;4980582;28;20046;-71
2023/10/04 13:17:55;;;;;;;2.08;1.42;;;;;;;;;;4977657;28;20062;-71
2023/10/04 13:20:26;;;;;;;1.58;1.20;;;;;;;;;;4975228;28;20065;-71
2023/10/04 13:22:55;;;;;;;2.15;1.20;;;;;;;;;;4976210;28;20104;-71
2023/10/04 13:25:23;;;;;;;2.40;1.30;;;;;;;;;;4975480;28;20161;-72
2023/10/04 13:27:49;;;;;;;3.40;1.50;;;;;;;;;;4978339;28;20054;-71
2023/10/04 13:30:15;;;;;;;3.22;1.30;;;;;;;;;;4977700;28;20058;-72
2023/10/04 13:32:48;;;;;;;2.70;1.30;;;;;;;;;;4977973;28;20105;-71
2023/10/04 13:35:18;;;;;;;2.05;1.38;;;;;;;;;;4977029;28;20057;-73
2023/10/04 13:37:45;;;;;;;4.40;1.60;;;;;;;;;;4978037;28;20644;-74
2023/10/04 13:40:19;;;;;;;2.08;1.42;;;;;;;;;;4976807;28;20044;-74
2023/10/04 13:42:50;;;;;;;2.33;1.30;;;;;;;;;;4977732;28;20058;-74
2023/10/04 13:45:16;;;;;;;1.75;1.00;;;;;;;;;;4979737;28;20094;-73
2023/10/04 13:47:42;;;;;;;1.70;1.13;;;;;;;;;;4977590;28;20134;-74
2023/10/04 13:50:08;;;;;;;1.83;1.08;;;;;;;;;;4979510;28;20050;-74
2023/10/04 13:52:34;;;;;;;2.40;1.25;;;;;;;;;;4978198;28;20475;-74
2023/10/04 13:55:00;;;;;;;2.90;1.30;;;;;;;;;;4978596;28;20132;-75
2023/10/04 13:57:25;;;;;;;2.60;1.10;;;;;;;;;;4978742;28;20117;-74
2023/10/04 13:59:51;;;;;;;6.07;1.23;;;;;;;;;;4994453;28;20475;-74
2023/10/04 14:02:18;;;;;;;3.65;1.38;;;;;;;;;;4979115;28;20057;-74
2023/10/04 14:04:47;;;;;;;2.83;1.30;;;;;;;;;;4992676;28;20046;-73
2023/10/04 14:07:13;;;;;;;2.58;1.27;;;;;;;;;;4979423;28;20084;-74
2023/10/04 14:09:39;;;;;;;6.10;1.40;;;;;;;;;;4978025;28;20057;-74
2023/10/04 14:12:05;;;;;;;4.72;1.58;;;;;;;;;;4979703;28;20062;-74
2023/10/04 14:14:31;;;;;;;2.45;1.30;;;;;;;;;;4978626;28;20045;-74
2023/10/04 14:17:00;;;;;;;2.70;1.35;;;;;;;;;;4977355;28;20050;-74
2023/10/04 14:19:26;;;;;;;1.90;1.20;;;;;;;;;;4978633;28;20061;-74
2023/10/04 14:21:51;;;;;;;3.45;1.20;;;;;;;;;;4979729;28;20050;-74
2023/10/04 14:24:17;;;;;;;2.70;1.30;;;;;;;;;;4991993;28;20731;-74
2023/10/04 14:26:43;;;;;;;2.40;1.35;;;;;;;;;;4976883;28;20199;-74
2023/10/04 14:29:09;;;;;;;5.60;1.70;;;;;;;;;;4994021;28;20073;-74
2023/10/04 14:31:34;;;;;;;3.58;1.65;;;;;;;;;;4978514;28;20073;-74
2023/10/04 14:34:02;;;;;;;4.05;1.27;;;;;;;;;;4979148;28;20050;-74
2023/10/04 14:36:28;;;;;;;4.28;1.30;;;;;;;;;;4993380;28;20051;-73
2023/10/04 14:38:53;;;;;;;1.98;1.45;;;;;;;;;;4976724;28;20054;-74
2023/10/04 14:41:20;;;;;;;3.10;1.08;;;;;;;;;;4976244;28;20038;-73
2023/10/04 14:43:46;;;;;;;2.47;1.27;;;;;;;;;;4978752;28;20537;-73
2023/10/04 14:46:11;;;;;;;1.83;1.27;;;;;;;;;;4980767;28;20710;-73
2023/10/04 14:48:37;;;;;;;3.45;1.60;;;;;;;;;;4977581;28;20129;-73